Terminal Aerodrome Forecast
Issued by NWS Austin/San Antonio, TX

Home | Current Version | Previous Version | Text Only | Print | Product List | Glossary On
Versions: 1 2 3 4 5 6 7 8 9 10 11 12 13 14 15 16 17 18 19 20
000
FTUS44 KEWX 291128
TAFAUS
TAF
KAUS 291128Z 2912/3018 01008KT P6SM VCSH OVC007
     FM291600 02008KT P6SM BKN025
     FM291800 03009KT P6SM VCTS BKN035CB
     FM300200 04005KT P6SM SCT050 BKN120
     FM301000 04003KT 6SM BR BKN007
     FM301600 05003KT P6SM BKN025=

USA.gov is the U.S. government's official web portal to all federal, state and local government web resources and services.